createdAt,value
2019-01-12T00:02:16.658Z,-4.45
2019-01-12T00:04:48.351Z,-4.53
2019-01-12T00:07:20.096Z,-4.61
2019-01-12T00:09:51.822Z,-4.63
2019-01-12T00:12:23.517Z,-4.65
2019-01-12T00:14:55.464Z,-4.73
2019-01-12T00:17:27.092Z,-4.83
2019-01-12T00:19:58.601Z,-4.89
2019-01-12T00:22:30.408Z,-4.88
2019-01-12T00:25:02.448Z,-4.94
2019-01-12T00:27:34.237Z,-4.97
2019-01-12T00:30:06.613Z,-4.88
2019-01-12T00:32:38.328Z,-4.75
2019-01-12T00:35:10.235Z,-4.75
2019-01-12T00:37:42.002Z,-4.71
2019-01-12T00:40:13.936Z,-4.73
2019-01-12T00:42:45.822Z,-4.80
2019-01-12T00:45:17.706Z,-4.91
2019-01-12T00:47:49.667Z,-4.94
2019-01-12T00:50:21.877Z,-4.97
2019-01-12T00:52:53.835Z,-5.02
2019-01-12T00:55:26.602Z,-5.08
2019-01-12T00:57:58.387Z,-5.15
2019-01-12T01:00:30.395Z,-5.22
2019-01-12T01:03:02.058Z,-5.26
2019-01-12T01:05:33.944Z,-5.29
2019-01-12T01:08:05.667Z,-5.31
2019-01-12T01:10:37.537Z,-5.32
2019-01-12T01:13:09.029Z,-5.34
2019-01-12T01:15:41.044Z,-5.30
2019-01-12T01:18:12.986Z,-5.28
2019-01-12T01:20:44.980Z,-5.25
2019-01-12T01:23:16.817Z,-5.22
2019-01-12T01:25:48.982Z,-5.21
2019-01-12T01:28:21.900Z,-5.18
2019-01-12T01:30:54.089Z,-5.13
2019-01-12T01:33:28.053Z,-5.16
2019-01-12T01:35:59.284Z,-5.22
2019-01-12T01:38:30.881Z,-5.28
2019-01-12T01:41:02.379Z,-5.25
2019-01-12T01:43:34.340Z,-5.24
2019-01-12T01:46:06.335Z,-5.22
2019-01-12T01:48:38.015Z,-5.27
2019-01-12T01:51:09.720Z,-5.34
2019-01-12T01:53:41.646Z,-5.38
2019-01-12T01:56:13.544Z,-5.40
2019-01-12T01:58:45.202Z,-5.42
2019-01-12T02:01:17.044Z,-5.37
2019-01-12T02:03:48.655Z,-5.38
2019-01-12T02:06:23.455Z,-5.38
2019-01-12T02:08:55.194Z,-5.36
2019-01-12T02:11:27.149Z,-5.37
2019-01-12T02:13:58.750Z,-5.35
2019-01-12T02:16:30.850Z,-5.35
2019-01-12T02:19:02.697Z,-5.36
2019-01-12T02:21:34.271Z,-5.36
2019-01-12T02:24:06.061Z,-5.40
2019-01-12T02:26:37.929Z,-5.44
2019-01-12T02:29:09.953Z,-5.54
2019-01-12T02:31:41.415Z,-5.63
2019-01-12T02:34:15.245Z,-5.74
2019-01-12T02:36:46.631Z,-5.80
2019-01-12T02:39:18.375Z,-5.79
2019-01-12T02:41:50.250Z,-5.84
2019-01-12T02:44:21.950Z,-5.79
2019-01-12T02:46:53.482Z,-5.74
2019-01-12T02:49:25.081Z,-5.68
2019-01-12T02:51:56.958Z,-5.64
2019-01-12T02:54:28.552Z,-5.64
2019-01-12T02:57:00.153Z,-5.63
2019-01-12T02:59:32.212Z,-5.58
2019-01-12T03:02:03.854Z,-5.51
2019-01-12T03:04:35.678Z,-5.42
2019-01-12T03:07:07.690Z,-5.33
2019-01-12T03:09:40.328Z,-5.27
2019-01-12T03:12:12.006Z,-5.28
2019-01-12T03:14:43.611Z,-5.31
2019-01-12T03:17:15.402Z,-5.32
2019-01-12T03:19:47.195Z,-5.33
2019-01-12T03:22:19.091Z,-5.40
2019-01-12T03:24:50.668Z,-5.51
2019-01-12T03:27:22.759Z,-5.52
2019-01-12T03:29:54.393Z,-5.51
2019-01-12T03:32:26.097Z,-5.57
2019-01-12T03:34:58.028Z,-5.62
2019-01-12T03:37:29.786Z,-5.68
2019-01-12T03:40:01.325Z,-5.66
2019-01-12T03:42:33.605Z,-5.66
2019-01-12T03:45:05.771Z,-5.67
2019-01-12T03:47:37.368Z,-5.67
2019-01-12T03:50:11.176Z,-5.75
2019-01-12T03:52:42.903Z,-5.81
2019-01-12T03:55:14.702Z,-5.83
2019-01-12T03:57:46.460Z,-5.84
2019-01-12T04:00:24.089Z,-5.87
2019-01-12T04:02:55.678Z,-5.85
2019-01-12T04:05:27.492Z,-5.86
2019-01-12T04:07:59.232Z,-5.95
2019-01-12T04:10:30.946Z,-5.93
2019-01-12T04:13:02.704Z,-5.96
2019-01-12T04:15:34.448Z,-6.05
2019-01-12T04:18:06.180Z,-6.09
2019-01-12T04:20:37.955Z,-6.06
2019-01-12T04:23:09.936Z,-5.92
2019-01-12T04:25:41.454Z,-5.84
2019-01-12T04:28:13.069Z,-5.81
2019-01-12T04:30:44.609Z,-5.74
2019-01-12T04:33:16.169Z,-5.72
2019-01-12T04:35:47.920Z,-5.75
2019-01-12T04:38:19.527Z,-5.82
2019-01-12T04:40:51.508Z,-5.84
2019-01-12T04:43:23.197Z,-5.89
2019-01-12T04:45:54.846Z,-5.91
2019-01-12T04:48:26.567Z,-5.99
2019-01-12T04:50:58.261Z,-6.09
2019-01-12T04:53:30.128Z,-6.21
2019-01-12T04:56:01.829Z,-6.27
2019-01-12T04:58:33.305Z,-6.27
2019-01-12T05:01:05.012Z,-6.36
2019-01-12T05:03:36.676Z,-6.33
2019-01-12T05:06:08.645Z,-6.38
2019-01-12T05:08:40.757Z,-6.47
2019-01-12T05:11:12.560Z,-6.55
2019-01-12T05:13:44.184Z,-6.60
2019-01-12T05:16:15.900Z,-6.65
2019-01-12T05:18:47.967Z,-6.69
2019-01-12T05:21:19.578Z,-6.66
2019-01-12T05:23:52.236Z,-6.71
2019-01-12T05:26:24.023Z,-6.74
2019-01-12T05:28:58.958Z,-6.88
2019-01-12T05:31:30.759Z,-6.93
2019-01-12T05:34:03.336Z,-6.98
2019-01-12T05:36:35.107Z,-6.99
2019-01-12T05:39:10.509Z,-6.96
2019-01-12T05:41:42.219Z,-6.92
2019-01-12T05:44:14.484Z,-6.94
2019-01-12T05:46:46.207Z,-6.96
2019-01-12T05:49:18.011Z,-7.03
2019-01-12T05:51:49.761Z,-7.05
2019-01-12T05:54:21.751Z,-7.07
2019-01-12T05:56:53.971Z,-7.09
2019-01-12T05:59:25.754Z,-7.09
2019-01-12T06:01:57.820Z,-7.15
2019-01-12T06:04:29.564Z,-7.18
2019-01-12T06:07:01.459Z,-7.26
2019-01-12T06:09:33.518Z,-7.27
2019-01-12T06:12:05.497Z,-7.24
2019-01-12T06:14:37.195Z,-7.17
2019-01-12T06:17:09.085Z,-7.12
2019-01-12T06:19:40.897Z,-7.03
2019-01-12T06:22:12.531Z,-6.97
2019-01-12T06:24:44.065Z,-6.93
2019-01-12T06:27:15.698Z,-6.88
2019-01-12T06:29:47.570Z,-6.85
2019-01-12T06:32:19.322Z,-6.84
2019-01-12T06:34:51.019Z,-6.85
2019-01-12T06:37:24.475Z,-6.83
2019-01-12T06:39:56.116Z,-6.81
2019-01-12T06:42:27.825Z,-6.80
2019-01-12T06:44:59.583Z,-6.81
2019-01-12T06:47:31.372Z,-6.82
2019-01-12T06:50:03.072Z,-6.92
2019-01-12T06:52:35.855Z,-7.02
2019-01-12T06:55:10.239Z,-7.11
2019-01-12T06:57:42.313Z,-7.15
2019-01-12T07:00:17.944Z,-7.09
2019-01-12T07:02:49.781Z,-6.93
2019-01-12T07:05:21.795Z,-6.87
2019-01-12T07:07:53.269Z,-6.84
2019-01-12T07:10:24.959Z,-6.85
2019-01-12T07:12:57.135Z,-6.83
2019-01-12T07:15:29.616Z,-6.79
2019-01-12T07:18:01.532Z,-6.67
2019-01-12T07:20:33.212Z,-6.64
2019-01-12T07:23:04.648Z,-6.50
2019-01-12T07:25:36.629Z,-5.59
2019-01-12T07:28:10.126Z,-3.39
2019-01-12T07:30:42.404Z,-1.92
2019-01-12T07:33:14.012Z,-0.51
2019-01-12T07:35:46.823Z,0.09
2019-01-12T07:38:19.360Z,1.14
2019-01-12T07:40:51.225Z,2.45
2019-01-12T07:43:22.925Z,3.05
2019-01-12T07:45:54.693Z,3.60
2019-01-12T07:48:26.480Z,3.98
2019-01-12T07:50:58.781Z,4.86
2019-01-12T07:53:30.674Z,5.29
2019-01-12T07:56:02.440Z,5.69
2019-01-12T07:58:35.365Z,6.44
2019-01-12T08:01:08.020Z,7.24
2019-01-12T08:03:39.997Z,7.55
2019-01-12T08:06:11.969Z,7.87
2019-01-12T08:08:44.069Z,8.54
2019-01-12T08:11:15.953Z,8.87
2019-01-12T08:13:47.534Z,8.62
2019-01-12T08:16:19.760Z,8.58
2019-01-12T08:18:51.631Z,9.28
2019-01-12T08:21:23.382Z,9.79
2019-01-12T08:23:55.523Z,10.05
2019-01-12T08:26:31.195Z,10.56
2019-01-12T08:29:01.084Z,10.89
2019-01-12T08:31:33.052Z,11.36
2019-01-12T08:34:04.898Z,11.53
2019-01-12T08:36:36.810Z,11.65
2019-01-12T08:39:10.139Z,12.13
2019-01-12T08:41:41.848Z,11.84
2019-01-12T08:44:13.726Z,12.59
2019-01-12T08:46:45.499Z,11.55
2019-01-12T08:49:17.525Z,11.71
2019-01-12T08:51:49.683Z,11.56
2019-01-12T08:54:21.335Z,12.23
2019-01-12T08:56:53.236Z,12.38
2019-01-12T08:59:26.541Z,12.44
2019-01-12T09:01:58.584Z,13.28
2019-01-12T09:04:32.220Z,13.17
2019-01-12T09:07:04.260Z,13.41
2019-01-12T09:09:36.045Z,13.99
2019-01-12T09:12:07.766Z,13.45
2019-01-12T09:14:40.806Z,13.27
2019-01-12T09:17:12.602Z,14.13
2019-01-12T09:19:44.852Z,13.06
2019-01-12T09:22:16.889Z,13.97
2019-01-12T09:24:49.723Z,13.86
2019-01-12T09:27:22.215Z,14.20
2019-01-12T09:29:54.831Z,14.32
2019-01-12T09:32:26.517Z,14.38
2019-01-12T09:34:58.139Z,14.83
2019-01-12T09:37:30.363Z,14.86
2019-01-12T09:40:02.216Z,15.20
2019-01-12T09:42:34.824Z,15.73
2019-01-12T09:45:09.016Z,16.30
2019-01-12T09:47:41.264Z,15.57
2019-01-12T09:50:17.026Z,15.31
2019-01-12T09:52:50.559Z,15.50
2019-01-12T09:55:23.800Z,14.98
2019-01-12T09:57:55.699Z,15.32
2019-01-12T10:00:29.717Z,15.40
2019-01-12T10:03:02.136Z,15.84
2019-01-12T10:05:34.951Z,15.70
2019-01-12T10:08:07.703Z,16.06
2019-01-12T10:10:40.303Z,15.70
2019-01-12T10:13:12.622Z,16.59
2019-01-12T10:15:44.719Z,16.36
2019-01-12T10:18:16.571Z,17.25
2019-01-12T10:20:48.343Z,17.56
2019-01-12T10:23:20.653Z,17.34
2019-01-12T10:25:52.591Z,17.00
2019-01-12T10:28:24.684Z,17.21
2019-01-12T10:30:56.784Z,16.62
2019-01-12T10:33:28.704Z,17.17
2019-01-12T10:36:00.724Z,18.30
2019-01-12T10:38:33.531Z,18.85
2019-01-12T10:41:05.679Z,18.72
2019-01-12T10:43:38.358Z,17.58
2019-01-12T10:46:11.940Z,17.71
2019-01-12T10:48:44.011Z,17.57
2019-01-12T10:51:16.496Z,18.55
2019-01-12T10:53:48.489Z,19.12
2019-01-12T10:56:21.361Z,18.00
2019-01-12T10:58:53.427Z,18.36
2019-01-12T11:01:25.718Z,19.50
2019-01-12T11:03:57.762Z,19.64
2019-01-12T11:06:30.259Z,20.47
2019-01-12T11:09:02.715Z,20.97
2019-01-12T11:11:35.461Z,21.37
2019-01-12T11:14:07.647Z,21.63
2019-01-12T11:16:40.013Z,20.53
2019-01-12T11:19:12.228Z,19.80
2019-01-12T11:21:45.123Z,18.99
2019-01-12T11:24:17.705Z,18.31
2019-01-12T11:26:50.308Z,19.48
2019-01-12T11:29:22.064Z,19.17
2019-01-12T11:31:54.080Z,19.09
2019-01-12T11:34:25.791Z,19.47
2019-01-12T11:36:57.845Z,19.02
2019-01-12T11:39:29.577Z,18.20
2019-01-12T11:42:03.073Z,18.38
2019-01-12T11:44:35.162Z,18.82
2019-01-12T11:47:09.257Z,18.34
2019-01-12T11:49:41.546Z,19.23
2019-01-12T11:52:15.061Z,18.37
2019-01-12T11:54:47.218Z,18.81
2019-01-12T11:57:20.059Z,18.69
2019-01-12T11:59:52.208Z,18.42
2019-01-12T12:02:24.545Z,18.69
2019-01-12T12:04:56.755Z,18.51
2019-01-12T12:07:29.376Z,17.81
2019-01-12T12:10:01.420Z,17.99
2019-01-12T12:12:33.254Z,18.04
2019-01-12T12:15:06.542Z,18.34
2019-01-12T12:17:39.021Z,18.41
2019-01-12T12:20:17.656Z,18.19
2019-01-12T12:22:51.413Z,17.54
2019-01-12T12:25:23.319Z,17.56
2019-01-12T12:27:55.370Z,17.88
2019-01-12T12:30:32.395Z,17.67
2019-01-12T12:33:04.827Z,18.06
2019-01-12T12:35:37.892Z,17.94
2019-01-12T12:38:10.827Z,18.15
2019-01-12T12:40:42.922Z,17.73
2019-01-12T12:43:14.669Z,17.60
2019-01-12T12:45:47.252Z,17.67
2019-01-12T12:48:19.919Z,17.64
2019-01-12T12:50:52.039Z,18.35
2019-01-12T12:53:24.441Z,18.00
2019-01-12T12:55:56.790Z,18.17
2019-01-12T12:58:29.444Z,18.53
2019-01-12T13:01:01.475Z,18.63
2019-01-12T13:03:33.567Z,18.86
2019-01-12T13:06:06.832Z,19.15
2019-01-12T13:08:38.894Z,19.24
2019-01-12T13:11:10.946Z,18.84
2019-01-12T13:13:43.170Z,18.21
2019-01-12T13:16:15.240Z,18.15
2019-01-12T13:18:48.051Z,18.54
2019-01-12T13:21:22.095Z,18.28
2019-01-12T13:23:54.273Z,17.93
2019-01-12T13:26:26.619Z,17.99
2019-01-12T13:28:58.535Z,18.40
2019-01-12T13:31:30.604Z,18.59
2019-01-12T13:34:02.893Z,18.39
2019-01-12T13:36:35.027Z,17.85
2019-01-12T13:39:10.354Z,17.47
2019-01-12T13:41:42.221Z,17.60
2019-01-12T13:44:14.467Z,17.23
2019-01-12T13:46:47.777Z,17.08
2019-01-12T13:49:19.597Z,17.55
2019-01-12T13:51:51.566Z,17.64
2019-01-12T13:54:23.898Z,17.20
2019-01-12T13:56:56.019Z,17.59
2019-01-12T13:59:27.887Z,17.29
2019-01-12T14:02:00.233Z,17.24
2019-01-12T14:04:32.209Z,17.56
2019-01-12T14:07:04.135Z,17.95
2019-01-12T14:09:37.769Z,17.78
2019-01-12T14:12:10.416Z,17.66
2019-01-12T14:14:44.475Z,17.88
2019-01-12T14:17:19.480Z,17.55
2019-01-12T14:19:51.760Z,16.78
2019-01-12T14:22:23.824Z,15.64
2019-01-12T14:24:55.871Z,15.18
2019-01-12T14:27:27.715Z,15.04
2019-01-12T14:29:59.542Z,14.98
2019-01-12T14:32:33.489Z,14.94
2019-01-12T14:35:05.963Z,14.19
2019-01-12T14:37:38.478Z,13.98
2019-01-12T14:40:14.888Z,13.77
2019-01-12T14:42:46.925Z,13.57
2019-01-12T14:45:22.852Z,13.67
2019-01-12T14:47:54.767Z,13.40
2019-01-12T14:50:31.101Z,12.97
2019-01-12T14:53:04.110Z,12.90
2019-01-12T14:55:35.896Z,12.82
2019-01-12T14:58:10.263Z,12.79
2019-01-12T15:00:42.377Z,12.71
2019-01-12T15:03:13.985Z,12.55
2019-01-12T15:05:46.193Z,12.38
2019-01-12T15:08:18.067Z,12.45
2019-01-12T15:10:50.086Z,12.50
2019-01-12T15:13:23.199Z,12.13
2019-01-12T15:15:55.643Z,11.93
2019-01-12T15:18:29.825Z,11.80
2019-01-12T15:21:02.151Z,11.97
2019-01-12T15:23:34.510Z,12.15
2019-01-12T15:26:07.024Z,12.20
2019-01-12T15:28:40.928Z,12.11
2019-01-12T15:31:13.594Z,12.07
2019-01-12T15:33:46.451Z,11.96
2019-01-12T15:36:19.066Z,11.80
2019-01-12T15:38:54.066Z,11.53
2019-01-12T15:41:26.895Z,10.86
2019-01-12T15:43:59.169Z,10.08
2019-01-12T15:46:31.862Z,9.28
2019-01-12T15:49:05.352Z,8.65
2019-01-12T15:51:37.401Z,8.18
2019-01-12T15:54:09.571Z,7.78
2019-01-12T15:56:45.694Z,7.44
2019-01-12T15:59:19.525Z,7.13
2019-01-12T16:01:51.826Z,6.79
2019-01-12T16:04:24.126Z,6.49
2019-01-12T16:06:56.312Z,6.22
2019-01-12T16:09:28.479Z,5.99
2019-01-12T16:12:03.210Z,5.75
2019-01-12T16:14:35.177Z,5.54
2019-01-12T16:17:06.986Z,5.39
2019-01-12T16:19:39.146Z,5.24
2019-01-12T16:22:10.878Z,5.09
2019-01-12T16:24:43.909Z,4.88
2019-01-12T16:27:16.564Z,4.72
2019-01-12T16:29:48.650Z,4.54
2019-01-12T16:32:21.854Z,4.29
2019-01-12T16:34:56.024Z,4.07
2019-01-12T16:37:31.951Z,3.80
2019-01-12T16:40:04.367Z,3.50
2019-01-12T16:42:36.951Z,3.29
2019-01-12T16:45:09.782Z,3.12
2019-01-12T16:47:42.231Z,3.10
2019-01-12T16:50:14.371Z,3.11
2019-01-12T16:52:47.395Z,3.05
2019-01-12T16:55:20.028Z,3.00
2019-01-12T16:57:52.410Z,3.01
2019-01-12T17:00:43.215Z,3.02
2019-01-12T17:03:15.352Z,3.00
2019-01-12T17:05:48.320Z,2.80
2019-01-12T17:08:21.038Z,2.58
2019-01-12T17:10:53.068Z,2.39
2019-01-12T17:13:25.887Z,2.34
2019-01-12T17:15:58.042Z,2.34
2019-01-12T17:18:30.249Z,2.44
2019-01-12T17:21:02.642Z,2.31
2019-01-12T17:23:37.397Z,2.10
2019-01-12T17:26:09.363Z,2.00
2019-01-12T17:28:42.571Z,1.91
2019-01-12T17:31:15.916Z,1.82
2019-01-12T17:33:48.581Z,1.73
2019-01-12T17:36:21.883Z,1.65
2019-01-12T17:38:54.412Z,1.61
2019-01-12T17:41:26.858Z,1.61
2019-01-12T17:44:00.074Z,1.59
2019-01-12T17:46:31.984Z,1.55
2019-01-12T17:49:04.282Z,1.50
2019-01-12T17:51:36.423Z,1.40
2019-01-12T17:54:08.896Z,1.27
2019-01-12T17:56:42.596Z,1.12
2019-01-12T17:59:15.938Z,0.96
2019-01-12T18:01:48.019Z,0.71
2019-01-12T18:04:19.820Z,0.39
2019-01-12T18:06:53.316Z,0.19
2019-01-12T18:09:27.856Z,0.00
2019-01-12T18:11:59.829Z,-0.13
2019-01-12T18:14:31.577Z,-0.19
2019-01-12T18:17:06.465Z,-0.16
2019-01-12T18:19:39.953Z,-0.06
2019-01-12T18:22:13.555Z,0.00
2019-01-12T18:24:45.783Z,0.05
2019-01-12T18:27:18.065Z,0.10
2019-01-12T18:29:50.422Z,0.06
2019-01-12T18:32:23.621Z,0.27
2019-01-12T18:34:55.719Z,0.36
2019-01-12T18:37:29.023Z,0.56
2019-01-12T18:40:02.124Z,0.59
2019-01-12T18:42:35.328Z,0.52
2019-01-12T18:45:09.676Z,0.40
2019-01-12T18:47:42.901Z,0.31
2019-01-12T18:50:21.593Z,0.09
2019-01-12T18:52:53.495Z,-0.13
2019-01-12T18:55:25.902Z,-0.35
2019-01-12T18:57:59.526Z,-0.58
2019-01-12T19:00:32.680Z,-0.81
2019-01-12T19:03:05.492Z,-1.04
2019-01-12T19:05:38.735Z,-1.21
2019-01-12T19:08:12.272Z,-1.30
2019-01-12T19:10:44.316Z,-1.35
2019-01-12T19:13:16.541Z,-1.26
2019-01-12T19:15:48.423Z,-1.15
2019-01-12T19:18:20.826Z,-0.97
2019-01-12T19:20:52.757Z,-0.86
2019-01-12T19:23:24.739Z,-0.86
2019-01-12T19:25:57.149Z,-0.97
2019-01-12T19:28:28.991Z,-1.15
2019-01-12T19:31:01.341Z,-1.32
2019-01-12T19:33:33.568Z,-1.48
2019-01-12T19:36:05.693Z,-1.65
2019-01-12T19:38:38.419Z,-1.81
2019-01-12T19:41:16.149Z,-1.92
2019-01-12T19:43:48.702Z,-2.00
2019-01-12T19:46:22.131Z,-2.11
2019-01-12T19:48:54.545Z,-2.19
2019-01-12T19:51:29.203Z,-2.21
2019-01-12T19:54:01.670Z,-2.25
2019-01-12T19:56:33.944Z,-2.34
2019-01-12T19:59:13.483Z,-2.35
2019-01-12T20:01:41.928Z,-2.36
2019-01-12T20:04:16.936Z,-2.38
2019-01-12T20:06:49.610Z,-2.39
2019-01-12T20:09:22.771Z,-2.35
2019-01-12T20:11:55.717Z,-2.37
2019-01-12T20:14:28.008Z,-2.37
2019-01-12T20:17:00.830Z,-2.33
2019-01-12T20:19:33.446Z,-2.13
2019-01-12T20:22:07.479Z,-2.01
2019-01-12T20:24:39.500Z,-2.07
2019-01-12T20:27:11.717Z,-2.14
2019-01-12T20:29:45.529Z,-2.16
2019-01-12T20:33:21.483Z,-2.21
2019-01-12T20:36:57.563Z,-2.29
2019-01-12T20:40:26.431Z,-2.19
2019-01-12T20:43:30.174Z,-2.32
2019-01-12T20:46:51.079Z,-2.49
2019-01-12T20:50:30.957Z,-2.62
2019-01-12T20:53:41.156Z,-2.42
2019-01-12T20:57:03.885Z,-2.51
2019-01-12T21:00:26.788Z,-2.71
2019-01-12T21:03:44.235Z,-2.80
2019-01-12T21:06:59.981Z,-2.90
2019-01-12T21:10:30.398Z,-3.07
2019-01-12T21:14:07.390Z,-3.13
2019-01-12T21:16:45.993Z,-3.21
2019-01-12T21:19:22.884Z,-3.26
2019-01-12T21:21:55.590Z,-3.34
2019-01-12T21:24:28.285Z,-3.38
2019-01-12T21:27:01.107Z,-3.32
2019-01-12T21:29:35.298Z,-3.36
2019-01-12T21:32:10.956Z,-3.38
2019-01-12T21:34:44.479Z,-3.38
2019-01-12T21:37:17.171Z,-3.45
2019-01-12T21:39:50.497Z,-3.43
2019-01-12T21:42:23.120Z,-3.42
2019-01-12T21:44:56.123Z,-3.47
2019-01-12T21:47:28.156Z,-3.51
2019-01-12T21:50:00.266Z,-3.58
2019-01-12T21:52:32.414Z,-3.61
2019-01-12T21:55:04.682Z,-3.63
2019-01-12T21:57:36.772Z,-3.55
2019-01-12T22:00:14.616Z,-3.49
2019-01-12T22:02:47.798Z,-3.42
2019-01-12T22:05:19.968Z,-3.43
2019-01-12T22:07:52.133Z,-3.43
2019-01-12T22:10:23.914Z,-3.70
2019-01-12T22:13:02.056Z,-3.81
2019-01-12T22:15:34.469Z,-3.28
2019-01-12T22:18:06.572Z,-2.81
2019-01-12T22:20:38.909Z,-2.38
2019-01-12T22:23:12.460Z,-2.70
2019-01-12T22:25:44.609Z,-3.03
2019-01-12T22:28:16.957Z,-3.27
2019-01-12T22:30:54.601Z,-3.37
2019-01-12T22:33:26.879Z,-3.14
2019-01-12T22:35:59.375Z,-2.84
2019-01-12T22:38:31.759Z,-2.81
2019-01-12T22:41:04.521Z,-3.07
2019-01-12T22:43:37.624Z,-3.33
2019-01-12T22:46:09.925Z,-3.60
2019-01-12T22:48:43.640Z,-3.74
2019-01-12T22:51:15.640Z,-3.88
2019-01-12T22:53:47.777Z,-3.91
2019-01-12T22:56:22.689Z,-3.99
2019-01-12T22:58:55.055Z,-4.07
2019-01-12T23:01:57.835Z,-4.15
2019-01-12T23:04:31.868Z,-4.13
2019-01-12T23:07:11.557Z,-4.11
2019-01-12T23:09:42.293Z,-4.10
2019-01-12T23:12:15.529Z,-4.06
2019-01-12T23:14:48.031Z,-3.98
2019-01-12T23:17:20.846Z,-3.95
2019-01-12T23:19:53.062Z,-3.90
2019-01-12T23:22:25.924Z,-3.75
2019-01-12T23:24:59.145Z,-3.74
2019-01-12T23:27:32.239Z,-3.76
2019-01-12T23:30:06.845Z,-3.68
2019-01-12T23:32:39.713Z,-3.36
2019-01-12T23:35:12.797Z,-3.38
2019-01-12T23:37:45.459Z,-3.60
2019-01-12T23:40:18.336Z,-3.78
2019-01-12T23:42:51.777Z,-3.81
2019-01-12T23:45:23.900Z,-4.00
2019-01-12T23:47:58.768Z,-3.96
2019-01-12T23:50:34.947Z,-4.04
2019-01-12T23:53:10.550Z,-4.09
2019-01-12T23:55:47.195Z,-3.99
2019-01-12T23:58:20.885Z,-3.96
